sensor_id;sensor_type;location;lat;lon;timestamp;pressure;altitude;pressure_sealevel;temperature;humidity
68712;BME280;55690;51.566;19.198;2023-03-30T00:04:00;101600.95;;;8.86;65.11
68712;BME280;55690;51.566;19.198;2023-03-30T00:08:06;101602.69;;;8.87;65.34
68712;BME280;55690;51.566;19.198;2023-03-30T00:12:13;101597.11;;;8.90;65.26
68712;BME280;55690;51.566;19.198;2023-03-30T00:16:20;101587.68;;;8.64;65.64
68712;BME280;55690;51.566;19.198;2023-03-30T00:20:25;101583.26;;;8.79;66.02
68712;BME280;55690;51.566;19.198;2023-03-30T00:24:31;101588.33;;;9.03;65.27
68712;BME280;55690;51.566;19.198;2023-03-30T00:28:37;101584.16;;;8.45;66.59
68712;BME280;55690;51.566;19.198;2023-03-30T00:32:44;101584.05;;;8.81;66.80
68712;BME280;55690;51.566;19.198;2023-03-30T00:36:49;101571.44;;;8.64;66.83
68712;BME280;55690;51.566;19.198;2023-03-30T00:40:57;101576.09;;;8.78;66.79
68712;BME280;55690;51.566;19.198;2023-03-30T00:45:26;101574.86;;;8.51;67.25
68712;BME280;55690;51.566;19.198;2023-03-30T00:49:20;101557.10;;;8.62;67.83
68712;BME280;55690;51.566;19.198;2023-03-30T00:53:29;101568.84;;;8.79;67.05
68712;BME280;55690;51.566;19.198;2023-03-30T00:57:32;101561.72;;;8.43;68.49
68712;BME280;55690;51.566;19.198;2023-03-30T01:01:36;101557.98;;;8.46;68.50
68712;BME280;55690;51.566;19.198;2023-03-30T01:05:41;101554.75;;;8.72;68.48
68712;BME280;55690;51.566;19.198;2023-03-30T01:09:45;101554.83;;;8.71;68.67
68712;BME280;55690;51.566;19.198;2023-03-30T01:13:48;101540.00;;;9.11;67.34
68712;BME280;55690;51.566;19.198;2023-03-30T01:18:05;101539.04;;;9.12;67.42
68712;BME280;55690;51.566;19.198;2023-03-30T01:43:24;101529.70;;;9.17;68.39
68712;BME280;55690;51.566;19.198;2023-03-30T02:00:13;101518.02;;;8.84;70.13
68712;BME280;55690;51.566;19.198;2023-03-30T02:04:21;101516.92;;;8.71;71.10
68712;BME280;55690;51.566;19.198;2023-03-30T02:08:27;101511.86;;;8.97;70.21
68712;BME280;55690;51.566;19.198;2023-03-30T02:12:31;101509.61;;;9.06;70.25
68712;BME280;55690;51.566;19.198;2023-03-30T02:16:40;101505.06;;;9.06;70.33
68712;BME280;55690;51.566;19.198;2023-03-30T02:20:43;101498.60;;;9.09;70.77
68712;BME280;55690;51.566;19.198;2023-03-30T02:24:47;101495.35;;;9.02;70.81
68712;BME280;55690;51.566;19.198;2023-03-30T02:28:50;101496.27;;;8.85;71.62
68712;BME280;55690;51.566;19.198;2023-03-30T02:32:54;101486.59;;;9.13;71.30
68712;BME280;55690;51.566;19.198;2023-03-30T02:37:10;101488.27;;;8.99;71.05
68712;BME280;55690;51.566;19.198;2023-03-30T02:54:14;101462.19;;;8.81;72.37
68712;BME280;55690;51.566;19.198;2023-03-30T02:58:14;101464.51;;;9.05;72.22
68712;BME280;55690;51.566;19.198;2023-03-30T03:02:20;101456.71;;;9.14;71.94
68712;BME280;55690;51.566;19.198;2023-03-30T03:06:24;101454.53;;;9.21;71.99
68712;BME280;55690;51.566;19.198;2023-03-30T03:10:26;101442.83;;;9.05;72.62
68712;BME280;55690;51.566;19.198;2023-03-30T03:14:27;101431.62;;;9.11;72.52
68712;BME280;55690;51.566;19.198;2023-03-30T03:18:30;101435.30;;;9.25;72.67
68712;BME280;55690;51.566;19.198;2023-03-30T03:22:32;101438.80;;;9.27;72.68
68712;BME280;55690;51.566;19.198;2023-03-30T03:26:33;101427.78;;;9.30;72.58
68712;BME280;55690;51.566;19.198;2023-03-30T03:30:36;101422.96;;;9.51;72.00
68712;BME280;55690;51.566;19.198;2023-03-30T03:34:38;101429.50;;;9.93;71.26
68712;BME280;55690;51.566;19.198;2023-03-30T03:38:45;101419.37;;;9.51;71.91
68712;BME280;55690;51.566;19.198;2023-03-30T03:42:46;101417.63;;;9.50;72.20
68712;BME280;55690;51.566;19.198;2023-03-30T03:46:48;101408.80;;;9.46;72.40
68712;BME280;55690;51.566;19.198;2023-03-30T03:50:55;101403.20;;;9.49;72.21
68712;BME280;55690;51.566;19.198;2023-03-30T03:54:57;101391.59;;;9.16;73.36
68712;BME280;55690;51.566;19.198;2023-03-30T03:58:58;101400.51;;;9.18;73.45
68712;BME280;55690;51.566;19.198;2023-03-30T04:03:04;101399.55;;;9.19;73.58
68712;BME280;55690;51.566;19.198;2023-03-30T04:07:07;101384.16;;;9.19;73.31
68712;BME280;55690;51.566;19.198;2023-03-30T04:11:10;101381.27;;;9.22;73.50
68712;BME280;55690;51.566;19.198;2023-03-30T04:15:12;101381.71;;;9.30;73.60
68712;BME280;55690;51.566;19.198;2023-03-30T04:19:14;101373.62;;;8.99;74.15
68712;BME280;55690;51.566;19.198;2023-03-30T04:23:15;101367.59;;;9.10;73.78
68712;BME280;55690;51.566;19.198;2023-03-30T04:27:22;101365.55;;;9.13;74.17
68712;BME280;55690;51.566;19.198;2023-03-30T04:31:28;101368.68;;;9.37;74.03
68712;BME280;55690;51.566;19.198;2023-03-30T04:35:35;101350.05;;;9.61;73.63
68712;BME280;55690;51.566;19.198;2023-03-30T04:39:37;101346.65;;;9.57;74.22
68712;BME280;55690;51.566;19.198;2023-03-30T04:43:38;101333.25;;;9.40;74.81
68712;BME280;55690;51.566;19.198;2023-03-30T04:47:40;101343.34;;;9.82;73.29
68712;BME280;55690;51.566;19.198;2023-03-30T04:51:42;101344.13;;;9.54;73.72
68712;BME280;55690;51.566;19.198;2023-03-30T04:55:48;101350.23;;;9.58;73.72
68712;BME280;55690;51.566;19.198;2023-03-30T04:59:50;101347.32;;;9.47;74.88
68712;BME280;55690;51.566;19.198;2023-03-30T05:03:52;101345.57;;;9.46;75.73
68712;BME280;55690;51.566;19.198;2023-03-30T05:07:53;101336.77;;;9.56;76.35
68712;BME280;55690;51.566;19.198;2023-03-30T05:11:54;101347.36;;;9.15;78.54
68712;BME280;55690;51.566;19.198;2023-03-30T05:15:56;101339.55;;;9.41;77.59
68712;BME280;55690;51.566;19.198;2023-03-30T05:19:58;101338.54;;;9.12;78.74
68712;BME280;55690;51.566;19.198;2023-03-30T05:24:02;101337.05;;;9.22;77.82
68712;BME280;55690;51.566;19.198;2023-03-30T05:28:08;101333.42;;;8.91;78.91
68712;BME280;55690;51.566;19.198;2023-03-30T05:32:14;101329.41;;;8.98;78.56
68712;BME280;55690;51.566;19.198;2023-03-30T05:36:20;101320.82;;;9.66;77.35
68712;BME280;55690;51.566;19.198;2023-03-30T05:40:27;101323.52;;;9.52;77.51
68712;BME280;55690;51.566;19.198;2023-03-30T05:44:33;101321.88;;;9.63;76.90
68712;BME280;55690;51.566;19.198;2023-03-30T05:48:39;101339.71;;;9.67;77.27
68712;BME280;55690;51.566;19.198;2023-03-30T05:52:45;101345.66;;;9.44;77.81
68712;BME280;55690;51.566;19.198;2023-03-30T05:56:51;101306.98;;;9.71;76.96
68712;BME280;55690;51.566;19.198;2023-03-30T06:00:57;101332.03;;;9.60;77.10
68712;BME280;55690;51.566;19.198;2023-03-30T06:05:04;101315.84;;;9.88;76.53
68712;BME280;55690;51.566;19.198;2023-03-30T06:09:10;101309.92;;;10.10;75.78
68712;BME280;55690;51.566;19.198;2023-03-30T06:13:16;101309.00;;;10.25;75.81
68712;BME280;55690;51.566;19.198;2023-03-30T06:17:22;101296.15;;;10.56;75.26
68712;BME280;55690;51.566;19.198;2023-03-30T06:21:28;101290.97;;;10.24;75.83
68712;BME280;55690;51.566;19.198;2023-03-30T06:25:35;101288.88;;;10.56;75.59
68712;BME280;55690;51.566;19.198;2023-03-30T06:29:41;101294.58;;;10.93;74.91
68712;BME280;55690;51.566;19.198;2023-03-30T06:33:47;101281.32;;;10.47;75.68
68712;BME280;55690;51.566;19.198;2023-03-30T06:37:53;101293.98;;;11.02;75.39
68712;BME280;55690;51.566;19.198;2023-03-30T06:41:59;101285.56;;;10.65;75.90
68712;BME280;55690;51.566;19.198;2023-03-30T06:46:07;101283.36;;;11.12;74.85
68712;BME280;55690;51.566;19.198;2023-03-30T06:50:12;101283.52;;;11.23;75.01
68712;BME280;55690;51.566;19.198;2023-03-30T06:54:18;101283.72;;;10.66;75.29
68712;BME280;55690;51.566;19.198;2023-03-30T06:58:25;101275.21;;;10.85;76.12
68712;BME280;55690;51.566;19.198;2023-03-30T07:02:30;101270.63;;;11.64;74.61
68712;BME280;55690;51.566;19.198;2023-03-30T07:06:36;101263.86;;;11.45;74.69
68712;BME280;55690;51.566;19.198;2023-03-30T07:10:42;101284.80;;;11.17;76.08
68712;BME280;55690;51.566;19.198;2023-03-30T07:14:49;101281.41;;;11.14;75.31
68712;BME280;55690;51.566;19.198;2023-03-30T07:18:55;101278.80;;;11.64;74.41
68712;BME280;55690;51.566;19.198;2023-03-30T07:23:02;101275.18;;;11.51;75.42
68712;BME280;55690;51.566;19.198;2023-03-30T07:27:08;101260.55;;;11.92;74.81
68712;BME280;55690;51.566;19.198;2023-03-30T07:31:13;101260.23;;;12.82;72.76
68712;BME280;55690;51.566;19.198;2023-03-30T07:35:20;101250.36;;;13.40;72.08
68712;BME280;55690;51.566;19.198;2023-03-30T07:39:26;101247.23;;;13.80;72.34
68712;BME280;55690;51.566;19.198;2023-03-30T07:43:32;101234.91;;;14.30;69.70
68712;BME280;55690;51.566;19.198;2023-03-30T07:47:39;101229.33;;;14.31;69.27
68712;BME280;55690;51.566;19.198;2023-03-30T07:51:44;101243.53;;;13.46;70.12
68712;BME280;55690;51.566;19.198;2023-03-30T07:55:50;101229.82;;;14.37;68.61
68712;BME280;55690;51.566;19.198;2023-03-30T07:59:57;101220.16;;;14.44;68.26
68712;BME280;55690;51.566;19.198;2023-03-30T08:04:03;101223.52;;;13.80;68.36
68712;BME280;55690;51.566;19.198;2023-03-30T08:08:09;101220.16;;;13.99;69.17
68712;BME280;55690;51.566;19.198;2023-03-30T08:12:15;101221.10;;;13.42;68.81
68712;BME280;55690;51.566;19.198;2023-03-30T08:16:21;101227.34;;;13.67;69.10
68712;BME280;55690;51.566;19.198;2023-03-30T08:20:27;101226.72;;;14.30;69.01
68712;BME280;55690;51.566;19.198;2023-03-30T08:24:34;101224.61;;;13.67;68.95
68712;BME280;55690;51.566;19.198;2023-03-30T08:28:40;101223.41;;;14.15;68.16
68712;BME280;55690;51.566;19.198;2023-03-30T08:32:46;101226.23;;;13.91;68.87
68712;BME280;55690;51.566;19.198;2023-03-30T08:36:52;101212.23;;;13.85;68.82
68712;BME280;55690;51.566;19.198;2023-03-30T08:40:58;101217.90;;;14.38;68.56
68712;BME280;55690;51.566;19.198;2023-03-30T08:45:07;101229.45;;;14.63;69.45
68712;BME280;55690;51.566;19.198;2023-03-30T08:49:15;101225.97;;;14.39;70.63
68712;BME280;55690;51.566;19.198;2023-03-30T08:53:18;101213.45;;;13.92;71.33
68712;BME280;55690;51.566;19.198;2023-03-30T08:57:33;101192.61;;;14.02;70.97
68712;BME280;55690;51.566;19.198;2023-03-30T09:05:55;101168.40;;;14.20;71.99
68712;BME280;55690;51.566;19.198;2023-03-30T09:10:00;101156.27;;;13.79;74.93
68712;BME280;55690;51.566;19.198;2023-03-30T09:14:06;101150.16;;;13.98;75.38
68712;BME280;55690;51.566;19.198;2023-03-30T09:22:28;101146.22;;;13.69;76.43
68712;BME280;55690;51.566;19.198;2023-03-30T09:35:07;101128.12;;;13.10;76.08
68712;BME280;55690;51.566;19.198;2023-03-30T09:39:18;101125.23;;;12.54;77.84
68712;BME280;55690;51.566;19.198;2023-03-30T09:43:33;101116.05;;;12.90;77.20
68712;BME280;55690;51.566;19.198;2023-03-30T09:47:40;101097.95;;;13.58;76.09
68712;BME280;55690;51.566;19.198;2023-03-30T09:51:52;101097.59;;;13.40;76.48
68712;BME280;55690;51.566;19.198;2023-03-30T09:56:00;101094.73;;;13.64;75.71
68712;BME280;55690;51.566;19.198;2023-03-30T10:04:16;101086.63;;;13.96;75.89
68712;BME280;55690;51.566;19.198;2023-03-30T10:08:20;101085.92;;;13.72;75.19
68712;BME280;55690;51.566;19.198;2023-03-30T10:12:24;101068.10;;;14.11;74.19
68712;BME280;55690;51.566;19.198;2023-03-30T10:16:28;101059.69;;;14.46;73.17
68712;BME280;55690;51.566;19.198;2023-03-30T10:20:34;101047.92;;;14.87;72.98
68712;BME280;55690;51.566;19.198;2023-03-30T10:29:04;101021.11;;;15.32;71.49
68712;BME280;55690;51.566;19.198;2023-03-30T10:34:56;100995.29;;;15.25;71.38
68712;BME280;55690;51.566;19.198;2023-03-30T10:39:11;100995.55;;;16.02;71.18
68712;BME280;55690;51.566;19.198;2023-03-30T10:43:16;100988.05;;;16.33;69.20
68712;BME280;55690;51.566;19.198;2023-03-30T10:47:49;100992.50;;;16.53;69.28
68712;BME280;55690;51.566;19.198;2023-03-30T11:04:29;100969.53;;;17.30;66.53
68712;BME280;55690;51.566;19.198;2023-03-30T11:08:30;100963.98;;;17.03;66.63
68712;BME280;55690;51.566;19.198;2023-03-30T11:12:41;100951.97;;;17.13;66.26
68712;BME280;55690;51.566;19.198;2023-03-30T11:21:04;100944.79;;;17.67;65.76
68712;BME280;55690;51.566;19.198;2023-03-30T11:25:21;100937.41;;;18.21;65.84
68712;BME280;55690;51.566;19.198;2023-03-30T11:29:33;100923.86;;;18.19;64.33
68712;BME280;55690;51.566;19.198;2023-03-30T11:33:49;100915.68;;;17.92;65.32
68712;BME280;55690;51.566;19.198;2023-03-30T11:37:57;100911.83;;;17.67;64.95
68712;BME280;55690;51.566;19.198;2023-03-30T11:42:09;100915.02;;;19.11;63.44
68712;BME280;55690;51.566;19.198;2023-03-30T11:47:06;100931.88;;;18.56;63.03
68712;BME280;55690;51.566;19.198;2023-03-30T11:59:08;100937.84;;;18.08;65.41
68712;BME280;55690;51.566;19.198;2023-03-30T12:03:20;100939.30;;;17.85;65.70
68712;BME280;55690;51.566;19.198;2023-03-30T12:07:32;100924.94;;;17.91;65.48
68712;BME280;55690;51.566;19.198;2023-03-30T12:20:13;100890.33;;;18.16;64.82
68712;BME280;55690;51.566;19.198;2023-03-30T12:41:13;100885.70;;;18.16;65.82
68712;BME280;55690;51.566;19.198;2023-03-30T12:45:24;100886.75;;;18.23;65.21
68712;BME280;55690;51.566;19.198;2023-03-30T13:06:31;100878.15;;;17.83;65.64
68712;BME280;55690;51.566;19.198;2023-03-30T13:10:39;100880.70;;;17.49;67.04
68712;BME280;55690;51.566;19.198;2023-03-30T13:14:45;100879.91;;;17.11;68.51
68712;BME280;55690;51.566;19.198;2023-03-30T13:18:54;100878.74;;;17.14;68.73
68712;BME280;55690;51.566;19.198;2023-03-30T13:27:21;100874.13;;;16.87;71.50
68712;BME280;55690;51.566;19.198;2023-03-30T13:48:34;100903.98;;;16.24;77.02
68712;BME280;55690;51.566;19.198;2023-03-30T13:52:36;100892.52;;;16.48;77.26
68712;BME280;55690;51.566;19.198;2023-03-30T13:56:43;100873.10;;;16.32;78.43
68712;BME280;55690;51.566;19.198;2023-03-30T14:00:55;100861.79;;;16.54;78.46
68712;BME280;55690;51.566;19.198;2023-03-30T14:09:20;100842.54;;;16.26;79.53
68712;BME280;55690;51.566;19.198;2023-03-30T14:13:22;100843.72;;;16.61;78.91
68712;BME280;55690;51.566;19.198;2023-03-30T14:17:24;100838.72;;;16.47;79.77
68712;BME280;55690;51.566;19.198;2023-03-30T14:21:26;100833.41;;;16.45;79.60
68712;BME280;55690;51.566;19.198;2023-03-30T14:25:33;100831.02;;;16.13;79.99
68712;BME280;55690;51.566;19.198;2023-03-30T14:29:44;100822.69;;;16.52;79.46
68712;BME280;55690;51.566;19.198;2023-03-30T14:33:46;100815.44;;;16.70;78.93
68712;BME280;55690;51.566;19.198;2023-03-30T14:37:48;100807.81;;;16.64;79.13
68712;BME280;55690;51.566;19.198;2023-03-30T14:41:50;100800.34;;;16.47;79.43
68712;BME280;55690;51.566;19.198;2023-03-30T14:45:55;100783.77;;;16.85;79.11
68712;BME280;55690;51.566;19.198;2023-03-30T14:50:01;100769.09;;;16.77;78.77
68712;BME280;55690;51.566;19.198;2023-03-30T14:54:06;100763.76;;;16.38;79.54
68712;BME280;55690;51.566;19.198;2023-03-30T14:58:13;100755.88;;;16.53;79.46
68712;BME280;55690;51.566;19.198;2023-03-30T15:02:25;100761.58;;;16.42;79.25
68712;BME280;55690;51.566;19.198;2023-03-30T15:06:28;100752.09;;;16.63;79.49
68712;BME280;55690;51.566;19.198;2023-03-30T15:10:48;100750.60;;;16.79;79.44
68712;BME280;55690;51.566;19.198;2023-03-30T15:14:46;100755.42;;;16.30;79.82
68712;BME280;55690;51.566;19.198;2023-03-30T15:18:51;100746.04;;;16.60;79.38
68712;BME280;55690;51.566;19.198;2023-03-30T15:22:53;100745.70;;;16.45;79.79
68712;BME280;55690;51.566;19.198;2023-03-30T15:26:58;100733.38;;;16.22;79.67
68712;BME280;55690;51.566;19.198;2023-03-30T15:31:01;100728.06;;;16.48;79.57
68712;BME280;55690;51.566;19.198;2023-03-30T15:39:24;100719.49;;;16.33;79.48
68712;BME280;55690;51.566;19.198;2023-03-30T15:43:35;100719.65;;;16.32;79.48
68712;BME280;55690;51.566;19.198;2023-03-30T15:47:40;100706.95;;;16.58;78.68
68712;BME280;55690;51.566;19.198;2023-03-30T15:51:45;100706.79;;;16.59;78.74
68712;BME280;55690;51.566;19.198;2023-03-30T15:55:49;100701.08;;;16.80;78.43
68712;BME280;55690;51.566;19.198;2023-03-30T15:59:57;100694.27;;;16.84;78.19
68712;BME280;55690;51.566;19.198;2023-03-30T16:04:04;100691.03;;;16.44;78.81
68712;BME280;55690;51.566;19.198;2023-03-30T16:08:06;100682.43;;;16.56;78.99
68712;BME280;55690;51.566;19.198;2023-03-30T16:12:13;100684.61;;;16.53;79.59
68712;BME280;55690;51.566;19.198;2023-03-30T16:16:15;100692.93;;;16.61;79.27
68712;BME280;55690;51.566;19.198;2023-03-30T16:20:24;100687.45;;;16.61;79.33
68712;BME280;55690;51.566;19.198;2023-03-30T16:24:27;100690.17;;;16.43;79.92
68712;BME280;55690;51.566;19.198;2023-03-30T16:28:28;100694.16;;;16.49;80.17
68712;BME280;55690;51.566;19.198;2023-03-30T16:32:30;100680.23;;;16.42;80.59
68712;BME280;55690;51.566;19.198;2023-03-30T16:36:32;100681.62;;;16.46;80.73
68712;BME280;55690;51.566;19.198;2023-03-30T16:40:40;100688.91;;;16.65;80.13
68712;BME280;55690;51.566;19.198;2023-03-30T16:44:43;100692.23;;;16.59;80.40
68712;BME280;55690;51.566;19.198;2023-03-30T16:48:45;100682.66;;;16.45;80.73
68712;BME280;55690;51.566;19.198;2023-03-30T16:52:46;100676.21;;;16.64;81.14
68712;BME280;55690;51.566;19.198;2023-03-30T16:56:48;100690.02;;;16.45;82.35
68712;BME280;55690;51.566;19.198;2023-03-30T17:00:51;100686.63;;;16.51;82.67
68712;BME280;55690;51.566;19.198;2023-03-30T17:04:53;100680.98;;;16.35;83.38
68712;BME280;55690;51.566;19.198;2023-03-30T17:08:55;100677.08;;;16.37;82.62
68712;BME280;55690;51.566;19.198;2023-03-30T17:12:57;100674.89;;;16.41;82.42
68712;BME280;55690;51.566;19.198;2023-03-30T17:16:59;100665.95;;;16.39;82.21
68712;BME280;55690;51.566;19.198;2023-03-30T17:21:01;100690.17;;;16.43;81.90
68712;BME280;55690;51.566;19.198;2023-03-30T17:25:03;100663.11;;;16.30;82.16
68712;BME280;55690;51.566;19.198;2023-03-30T17:29:05;100665.55;;;16.34;81.47
68712;BME280;55690;51.566;19.198;2023-03-30T17:33:07;100665.66;;;16.05;82.77
68712;BME280;55690;51.566;19.198;2023-03-30T17:37:12;100657.83;;;16.19;82.63
68712;BME280;55690;51.566;19.198;2023-03-30T17:41:14;100661.42;;;16.20;82.47
68712;BME280;55690;51.566;19.198;2023-03-30T17:45:22;100658.22;;;16.52;81.32
68712;BME280;55690;51.566;19.198;2023-03-30T17:49:24;100665.10;;;16.38;81.96
68712;BME280;55690;51.566;19.198;2023-03-30T17:53:26;100659.88;;;16.45;81.65
68712;BME280;55690;51.566;19.198;2023-03-30T17:57:27;100668.24;;;16.43;81.45
68712;BME280;55690;51.566;19.198;2023-03-30T18:01:29;100679.42;;;15.95;83.06
68712;BME280;55690;51.566;19.198;2023-03-30T18:05:32;100687.28;;;16.45;81.77
68712;BME280;55690;51.566;19.198;2023-03-30T18:09:34;100688.79;;;16.29;81.99
68712;BME280;55690;51.566;19.198;2023-03-30T18:13:36;100692.91;;;16.06;82.58
68712;BME280;55690;51.566;19.198;2023-03-30T18:17:38;100679.26;;;16.34;81.84
68712;BME280;55690;51.566;19.198;2023-03-30T18:21:39;100693.54;;;16.00;82.59
68712;BME280;55690;51.566;19.198;2023-03-30T18:25:41;100687.09;;;16.19;82.54
68712;BME280;55690;51.566;19.198;2023-03-30T18:29:43;100685.12;;;16.11;82.91
68712;BME280;55690;51.566;19.198;2023-03-30T18:33:45;100704.23;;;15.93;83.57
68712;BME280;55690;51.566;19.198;2023-03-30T18:37:47;100712.73;;;15.90;84.24
68712;BME280;55690;51.566;19.198;2023-03-30T18:41:53;100720.84;;;15.73;85.90
68712;BME280;55690;51.566;19.198;2023-03-30T18:45:56;100723.45;;;15.64;87.18
68712;BME280;55690;51.566;19.198;2023-03-30T18:49:57;100713.20;;;15.76;87.16
68712;BME280;55690;51.566;19.198;2023-03-30T18:53:59;100718.52;;;15.78;87.02
68712;BME280;55690;51.566;19.198;2023-03-30T18:58:01;100715.67;;;15.50;88.93
68712;BME280;55690;51.566;19.198;2023-03-30T19:02:07;100714.38;;;15.45;89.49
68712;BME280;55690;51.566;19.198;2023-03-30T19:06:18;100714.23;;;14.98;91.59
68712;BME280;55690;51.566;19.198;2023-03-30T19:10:27;100717.37;;;14.84;91.98
68712;BME280;55690;51.566;19.198;2023-03-30T19:14:29;100708.41;;;14.53;93.70
68712;BME280;55690;51.566;19.198;2023-03-30T19:18:31;100693.17;;;14.20;95.24
68712;BME280;55690;51.566;19.198;2023-03-30T19:22:33;100681.38;;;14.59;92.81
68712;BME280;55690;51.566;19.198;2023-03-30T19:26:34;100679.92;;;14.55;92.77
68712;BME280;55690;51.566;19.198;2023-03-30T19:30:36;100686.84;;;14.59;94.08
68712;BME280;55690;51.566;19.198;2023-03-30T19:34:38;100672.73;;;14.54;94.05
68712;BME280;55690;51.566;19.198;2023-03-30T19:38:40;100664.86;;;14.71;93.29
68712;BME280;55690;51.566;19.198;2023-03-30T19:42:45;100667.71;;;14.59;93.95
68712;BME280;55690;51.566;19.198;2023-03-30T19:46:46;100663.13;;;14.70;92.85
68712;BME280;55690;51.566;19.198;2023-03-30T19:50:48;100662.64;;;14.05;96.06
68712;BME280;55690;51.566;19.198;2023-03-30T19:54:51;100656.36;;;14.64;93.23
68712;BME280;55690;51.566;19.198;2023-03-30T19:58:53;100659.64;;;14.48;93.94
68712;BME280;55690;51.566;19.198;2023-03-30T20:02:54;100659.05;;;14.45;94.00
68712;BME280;55690;51.566;19.198;2023-03-30T20:06:58;100650.17;;;14.81;92.09
68712;BME280;55690;51.566;19.198;2023-03-30T20:10:59;100639.80;;;14.75;91.58
68712;BME280;55690;51.566;19.198;2023-03-30T20:15:01;100645.43;;;14.64;92.96
68712;BME280;55690;51.566;19.198;2023-03-30T20:19:06;100642.26;;;14.59;92.22
68712;BME280;55690;51.566;19.198;2023-03-30T20:23:10;100641.39;;;14.58;92.52
68712;BME280;55690;51.566;19.198;2023-03-30T20:27:11;100638.92;;;14.46;91.03
68712;BME280;55690;51.566;19.198;2023-03-30T20:31:13;100638.52;;;14.60;91.85
68712;BME280;55690;51.566;19.198;2023-03-30T20:35:16;100635.46;;;14.44;92.97
68712;BME280;55690;51.566;19.198;2023-03-30T20:39:20;100642.12;;;14.60;91.95
68712;BME280;55690;51.566;19.198;2023-03-30T20:43:27;100637.80;;;14.58;91.60
68712;BME280;55690;51.566;19.198;2023-03-30T20:47:28;100635.32;;;14.45;92.57
68712;BME280;55690;51.566;19.198;2023-03-30T20:51:34;100625.68;;;14.41;92.85
68712;BME280;55690;51.566;19.198;2023-03-30T20:55:39;100624.15;;;14.68;91.46
68712;BME280;55690;51.566;19.198;2023-03-30T20:59:45;100607.49;;;14.30;92.79
68712;BME280;55690;51.566;19.198;2023-03-30T21:03:57;100616.34;;;14.44;92.06
68712;BME280;55690;51.566;19.198;2023-03-30T21:07:59;100619.94;;;14.44;91.86
68712;BME280;55690;51.566;19.198;2023-03-30T21:12:04;100618.73;;;14.37;92.08
68712;BME280;55690;51.566;19.198;2023-03-30T21:16:10;100617.23;;;14.54;90.39
68712;BME280;55690;51.566;19.198;2023-03-30T21:20:17;100619.38;;;14.50;90.89
68712;BME280;55690;51.566;19.198;2023-03-30T21:24:22;100611.10;;;14.21;91.53
68712;BME280;55690;51.566;19.198;2023-03-30T21:28:29;100614.94;;;14.09;92.18
68712;BME280;55690;51.566;19.198;2023-03-30T21:32:35;100620.67;;;14.06;91.47
68712;BME280;55690;51.566;19.198;2023-03-30T21:36:41;100617.56;;;14.30;90.50
68712;BME280;55690;51.566;19.198;2023-03-30T21:45:00;100627.62;;;14.20;90.91
68712;BME280;55690;51.566;19.198;2023-03-30T21:49:02;100632.80;;;14.32;89.23
68712;BME280;55690;51.566;19.198;2023-03-30T21:53:06;100639.41;;;14.20;90.39
68712;BME280;55690;51.566;19.198;2023-03-30T21:57:12;100637.09;;;14.16;90.16
68712;BME280;55690;51.566;19.198;2023-03-30T22:01:20;100639.69;;;14.17;90.77
68712;BME280;55690;51.566;19.198;2023-03-30T22:05:24;100637.38;;;14.13;90.92
68712;BME280;55690;51.566;19.198;2023-03-30T22:09:30;100642.24;;;14.09;90.71
68712;BME280;55690;51.566;19.198;2023-03-30T22:13:36;100631.08;;;14.22;89.94
68712;BME280;55690;51.566;19.198;2023-03-30T22:17:43;100638.23;;;14.13;90.13
68712;BME280;55690;51.566;19.198;2023-03-30T22:21:49;100639.83;;;14.16;90.20
68712;BME280;55690;51.566;19.198;2023-03-30T22:25:55;100637.61;;;14.00;90.01
68712;BME280;55690;51.566;19.198;2023-03-30T22:30:02;100644.56;;;14.14;89.90
68712;BME280;55690;51.566;19.198;2023-03-30T22:34:07;100644.07;;;13.99;90.32
68712;BME280;55690;51.566;19.198;2023-03-30T22:38:14;100642.28;;;13.79;91.57
68712;BME280;55690;51.566;19.198;2023-03-30T22:42:20;100628.03;;;14.15;89.53
68712;BME280;55690;51.566;19.198;2023-03-30T22:46:26;100639.94;;;14.54;88.34
68712;BME280;55690;51.566;19.198;2023-03-30T22:50:33;100647.12;;;14.06;89.86
68712;BME280;55690;51.566;19.198;2023-03-30T22:54:38;100638.33;;;14.02;90.21
68712;BME280;55690;51.566;19.198;2023-03-30T22:58:45;100642.20;;;13.99;89.78
68712;BME280;55690;51.566;19.198;2023-03-30T23:02:51;100643.34;;;13.97;89.97
68712;BME280;55690;51.566;19.198;2023-03-30T23:06:57;100644.52;;;14.04;89.04
68712;BME280;55690;51.566;19.198;2023-03-30T23:11:03;100627.69;;;13.99;89.39
68712;BME280;55690;51.566;19.198;2023-03-30T23:15:10;100633.33;;;14.07;88.78
68712;BME280;55690;51.566;19.198;2023-03-30T23:19:15;100631.08;;;14.22;88.48
68712;BME280;55690;51.566;19.198;2023-03-30T23:23:22;100634.78;;;14.11;88.57
68712;BME280;55690;51.566;19.198;2023-03-30T23:27:28;100636.88;;;13.98;88.45
68712;BME280;55690;51.566;19.198;2023-03-30T23:31:34;100643.89;;;13.91;88.76
68712;BME280;55690;51.566;19.198;2023-03-30T23:35:47;100641.88;;;13.93;88.27
68712;BME280;55690;51.566;19.198;2023-03-30T23:39:50;100645.52;;;14.03;87.90
68712;BME280;55690;51.566;19.198;2023-03-30T23:43:52;100651.08;;;13.92;88.07
68712;BME280;55690;51.566;19.198;2023-03-30T23:47:58;100652.68;;;13.43;89.46
68712;BME280;55690;51.566;19.198;2023-03-30T23:52:05;100653.47;;;13.76;88.37
68712;BME280;55690;51.566;19.198;2023-03-30T23:56:11;100661.54;;;13.56;88.64
